sensor_id;sensor_type;location;lat;lon;timestamp;pressure;altitude;pressure_sealevel;temperature;humidity
36514;BME280;66331;46.796;9.824;2023-02-17T00:01:32;85414.37;;;0.50;38.89
36514;BME280;66331;46.796;9.824;2023-02-17T00:04:00;85405.98;;;1.80;36.56
36514;BME280;66331;46.796;9.824;2023-02-17T00:06:29;85406.44;;;1.59;36.33
36514;BME280;66331;46.796;9.824;2023-02-17T00:08:56;85410.90;;;-1.04;41.72
36514;BME280;66331;46.796;9.824;2023-02-17T00:11:23;85414.16;;;-1.00;41.82
36514;BME280;66331;46.796;9.824;2023-02-17T00:13:50;85413.98;;;-1.41;42.11
36514;BME280;66331;46.796;9.824;2023-02-17T00:16:21;85411.17;;;-0.93;41.60
36514;BME280;66331;46.796;9.824;2023-02-17T00:18:52;85415.34;;;-0.05;39.61
36514;BME280;66331;46.796;9.824;2023-02-17T00:21:23;85414.14;;;-0.17;39.41
36514;BME280;66331;46.796;9.824;2023-02-17T00:23:51;85413.32;;;-0.58;40.45
36514;BME280;66331;46.796;9.824;2023-02-17T00:26:20;85413.08;;;0.41;38.31
36514;BME280;66331;46.796;9.824;2023-02-17T00:28:48;85414.25;;;0.96;36.58
36514;BME280;66331;46.796;9.824;2023-02-17T00:31:18;85413.08;;;0.25;37.50
36514;BME280;66331;46.796;9.824;2023-02-17T00:33:45;85414.48;;;1.04;37.16
36514;BME280;66331;46.796;9.824;2023-02-17T00:36:14;85411.93;;;1.31;36.63
36514;BME280;66331;46.796;9.824;2023-02-17T00:38:42;85417.25;;;0.69;37.78
36514;BME280;66331;46.796;9.824;2023-02-17T00:41:09;85419.68;;;0.91;37.37
36514;BME280;66331;46.796;9.824;2023-02-17T00:43:36;85424.26;;;0.43;38.48
36514;BME280;66331;46.796;9.824;2023-02-17T00:46:08;85425.19;;;1.18;37.79
36514;BME280;66331;46.796;9.824;2023-02-17T00:48:35;85422.62;;;1.64;37.00
36514;BME280;66331;46.796;9.824;2023-02-17T00:51:04;85431.33;;;0.63;39.13
36514;BME280;66331;46.796;9.824;2023-02-17T00:53:31;85429.71;;;1.03;38.50
36514;BME280;66331;46.796;9.824;2023-02-17T00:55:58;85430.59;;;1.17;38.14
36514;BME280;66331;46.796;9.824;2023-02-17T00:58:26;85430.49;;;0.94;38.24
36514;BME280;66331;46.796;9.824;2023-02-17T01:00:54;85435.37;;;0.43;38.38
36514;BME280;66331;46.796;9.824;2023-02-17T01:03:22;85435.73;;;-1.41;42.12
36514;BME280;66331;46.796;9.824;2023-02-17T01:05:51;85439.92;;;-0.36;40.05
36514;BME280;66331;46.796;9.824;2023-02-17T01:08:19;85444.44;;;-0.29;39.28
36514;BME280;66331;46.796;9.824;2023-02-17T01:10:52;85443.78;;;0.01;38.44
36514;BME280;66331;46.796;9.824;2023-02-17T01:13:20;85440.65;;;0.08;38.41
36514;BME280;66331;46.796;9.824;2023-02-17T01:15:50;85434.81;;;0.53;38.61
36514;BME280;66331;46.796;9.824;2023-02-17T01:18:21;85434.19;;;1.01;37.14
36514;BME280;66331;46.796;9.824;2023-02-17T01:20:49;85431.39;;;0.60;37.94
36514;BME280;66331;46.796;9.824;2023-02-17T01:23:17;85429.59;;;-0.55;39.87
36514;BME280;66331;46.796;9.824;2023-02-17T01:25:46;85430.75;;;0.78;38.07
36514;BME280;66331;46.796;9.824;2023-02-17T01:28:17;85435.21;;;-0.01;39.40
36514;BME280;66331;46.796;9.824;2023-02-17T01:30:45;85432.14;;;0.87;38.49
36514;BME280;66331;46.796;9.824;2023-02-17T01:33:13;85431.05;;;1.25;37.01
36514;BME280;66331;46.796;9.824;2023-02-17T01:35:41;85435.49;;;-0.59;40.24
36514;BME280;66331;46.796;9.824;2023-02-17T01:38:09;85430.88;;;0.26;38.28
36514;BME280;66331;46.796;9.824;2023-02-17T01:40:45;85428.08;;;0.34;37.98
36514;BME280;66331;46.796;9.824;2023-02-17T01:43:16;85428.66;;;0.32;39.29
36514;BME280;66331;46.796;9.824;2023-02-17T01:45:50;85429.04;;;-1.38;41.95
36514;BME280;66331;46.796;9.824;2023-02-17T01:48:21;85425.65;;;-0.97;41.81
36514;BME280;66331;46.796;9.824;2023-02-17T01:50:54;85421.69;;;-0.20;39.92
36514;BME280;66331;46.796;9.824;2023-02-17T01:53:28;85423.02;;;0.37;38.82
36514;BME280;66331;46.796;9.824;2023-02-17T01:56:00;85420.77;;;0.15;39.28
36514;BME280;66331;46.796;9.824;2023-02-17T01:58:30;85418.07;;;0.14;39.78
36514;BME280;66331;46.796;9.824;2023-02-17T02:01:53;85415.57;;;-0.83;41.73
36514;BME280;66331;46.796;9.824;2023-02-17T02:04:31;85419.72;;;-0.39;41.41
36514;BME280;66331;46.796;9.824;2023-02-17T02:07:00;85416.92;;;-0.58;41.10
36514;BME280;66331;46.796;9.824;2023-02-17T02:09:31;85414.00;;;-0.01;40.20
36514;BME280;66331;46.796;9.824;2023-02-17T02:12:15;85415.15;;;0.12;40.14
36514;BME280;66331;46.796;9.824;2023-02-17T02:14:43;85412.31;;;-0.19;39.57
36514;BME280;66331;46.796;9.824;2023-02-17T02:17:16;85413.39;;;0.22;39.95
36514;BME280;66331;46.796;9.824;2023-02-17T02:20:09;85411.26;;;1.36;37.61
36514;BME280;66331;46.796;9.824;2023-02-17T02:23:01;85414.74;;;0.09;40.54
36514;BME280;66331;46.796;9.824;2023-02-17T02:25:52;85414.15;;;0.26;39.59
36514;BME280;66331;46.796;9.824;2023-02-17T02:28:39;85409.26;;;0.34;39.80
36514;BME280;66331;46.796;9.824;2023-02-17T02:31:25;85407.75;;;-0.12;38.96
36514;BME280;66331;46.796;9.824;2023-02-17T02:33:57;85407.11;;;0.51;39.23
36514;BME280;66331;46.796;9.824;2023-02-17T02:36:29;85409.41;;;1.34;37.55
36514;BME280;66331;46.796;9.824;2023-02-17T02:39:03;85406.29;;;1.19;37.57
36514;BME280;66331;46.796;9.824;2023-02-17T02:41:38;85397.70;;;1.58;37.14
36514;BME280;66331;46.796;9.824;2023-02-17T02:44:10;85404.26;;;0.02;39.82
36514;BME280;66331;46.796;9.824;2023-02-17T02:46:39;85403.24;;;-0.63;41.58
36514;BME280;66331;46.796;9.824;2023-02-17T02:49:07;85399.56;;;0.37;39.18
36514;BME280;66331;46.796;9.824;2023-02-17T02:53:36;85400.50;;;-0.41;40.43
36514;BME280;66331;46.796;9.824;2023-02-17T02:56:12;85402.37;;;-0.10;39.31
36514;BME280;66331;46.796;9.824;2023-02-17T02:58:48;85400.52;;;0.16;39.10
36514;BME280;66331;46.796;9.824;2023-02-17T03:01:25;85403.87;;;0.61;38.50
36514;BME280;66331;46.796;9.824;2023-02-17T03:04:04;85405.05;;;-0.22;40.61
36514;BME280;66331;46.796;9.824;2023-02-17T03:06:38;85403.59;;;-0.85;41.61
36514;BME280;66331;46.796;9.824;2023-02-17T03:09:10;85401.77;;;-0.60;41.52
36514;BME280;66331;46.796;9.824;2023-02-17T03:11:39;85400.52;;;0.12;39.32
36514;BME280;66331;46.796;9.824;2023-02-17T03:14:12;85402.46;;;-0.30;39.94
36514;BME280;66331;46.796;9.824;2023-02-17T03:16:41;85404.68;;;-0.59;42.10
36514;BME280;66331;46.796;9.824;2023-02-17T03:19:09;85402.20;;;0.24;39.93
36514;BME280;66331;46.796;9.824;2023-02-17T03:21:39;85400.93;;;0.14;39.91
36514;BME280;66331;46.796;9.824;2023-02-17T03:24:08;85403.57;;;0.06;39.32
36514;BME280;66331;46.796;9.824;2023-02-17T03:26:36;85396.02;;;1.28;37.58
36514;BME280;66331;46.796;9.824;2023-02-17T03:29:04;85399.86;;;1.43;37.84
36514;BME280;66331;46.796;9.824;2023-02-17T03:31:31;85401.48;;;0.19;40.32
36514;BME280;66331;46.796;9.824;2023-02-17T03:33:59;85403.67;;;-0.01;39.13
36514;BME280;66331;46.796;9.824;2023-02-17T03:36:26;85405.24;;;0.25;39.68
36514;BME280;66331;46.796;9.824;2023-02-17T03:38:53;85406.39;;;0.06;39.68
36514;BME280;66331;46.796;9.824;2023-02-17T03:41:20;85404.28;;;0.61;39.37
36514;BME280;66331;46.796;9.824;2023-02-17T03:43:48;85402.33;;;0.49;39.61
36514;BME280;66331;46.796;9.824;2023-02-17T03:46:17;85404.31;;;0.77;38.85
36514;BME280;66331;46.796;9.824;2023-02-17T03:48:45;85406.41;;;0.16;39.97
36514;BME280;66331;46.796;9.824;2023-02-17T03:51:14;85407.26;;;0.59;39.74
36514;BME280;66331;46.796;9.824;2023-02-17T03:53:43;85407.98;;;0.36;40.09
36514;BME280;66331;46.796;9.824;2023-02-17T03:56:11;85408.83;;;-0.40;41.54
36514;BME280;66331;46.796;9.824;2023-02-17T03:58:39;85404.35;;;0.18;39.59
36514;BME280;66331;46.796;9.824;2023-02-17T04:01:08;85406.01;;;0.49;38.69
36514;BME280;66331;46.796;9.824;2023-02-17T04:03:35;85403.65;;;0.29;39.45
36514;BME280;66331;46.796;9.824;2023-02-17T04:06:07;85394.02;;;1.35;38.04
36514;BME280;66331;46.796;9.824;2023-02-17T04:08:34;85404.38;;;-0.32;40.84
36514;BME280;66331;46.796;9.824;2023-02-17T04:11:04;85404.45;;;-0.39;41.07
36514;BME280;66331;46.796;9.824;2023-02-17T04:13:31;85404.90;;;0.01;41.22
36514;BME280;66331;46.796;9.824;2023-02-17T04:15:58;85401.29;;;0.65;40.06
36514;BME280;66331;46.796;9.824;2023-02-17T04:18:26;85404.48;;;-0.01;41.71
36514;BME280;66331;46.796;9.824;2023-02-17T04:20:53;85405.55;;;0.49;39.69
36514;BME280;66331;46.796;9.824;2023-02-17T04:23:21;85404.31;;;0.45;40.31
36514;BME280;66331;46.796;9.824;2023-02-17T04:25:48;85411.78;;;0.01;40.70
36514;BME280;66331;46.796;9.824;2023-02-17T04:28:16;85413.89;;;-0.41;40.62
36514;BME280;66331;46.796;9.824;2023-02-17T04:30:44;85409.94;;;0.65;39.97
36514;BME280;66331;46.796;9.824;2023-02-17T04:33:12;85408.95;;;-0.57;40.80
36514;BME280;66331;46.796;9.824;2023-02-17T04:35:39;85406.40;;;0.04;39.92
36514;BME280;66331;46.796;9.824;2023-02-17T04:38:07;85407.00;;;0.10;40.42
36514;BME280;66331;46.796;9.824;2023-02-17T04:40:34;85405.92;;;0.88;38.68
36514;BME280;66331;46.796;9.824;2023-02-17T04:43:01;85403.91;;;0.32;39.67
36514;BME280;66331;46.796;9.824;2023-02-17T04:45:29;85405.00;;;-0.07;40.13
36514;BME280;66331;46.796;9.824;2023-02-17T04:47:56;85408.40;;;0.04;40.32
36514;BME280;66331;46.796;9.824;2023-02-17T04:50:23;85403.77;;;1.19;38.52
36514;BME280;66331;46.796;9.824;2023-02-17T04:52:50;85402.75;;;1.26;38.28
36514;BME280;66331;46.796;9.824;2023-02-17T04:55:17;85406.82;;;-0.02;40.89
36514;BME280;66331;46.796;9.824;2023-02-17T04:57:44;85406.12;;;-0.16;40.54
36514;BME280;66331;46.796;9.824;2023-02-17T05:00:12;85405.41;;;-0.15;40.86
36514;BME280;66331;46.796;9.824;2023-02-17T05:02:39;85408.39;;;0.39;40.29
36514;BME280;66331;46.796;9.824;2023-02-17T05:05:11;85411.65;;;-0.88;42.94
36514;BME280;66331;46.796;9.824;2023-02-17T05:07:38;85413.69;;;-0.54;43.20
36514;BME280;66331;46.796;9.824;2023-02-17T05:10:06;85415.39;;;0.74;40.88
36514;BME280;66331;46.796;9.824;2023-02-17T05:12:32;85415.90;;;0.30;40.39
36514;BME280;66331;46.796;9.824;2023-02-17T05:15:00;85411.05;;;0.37;40.28
36514;BME280;66331;46.796;9.824;2023-02-17T05:17:27;85413.60;;;0.36;40.38
36514;BME280;66331;46.796;9.824;2023-02-17T05:19:59;85419.89;;;0.31;40.53
36514;BME280;66331;46.796;9.824;2023-02-17T05:22:27;85423.10;;;0.96;39.83
36514;BME280;66331;46.796;9.824;2023-02-17T05:24:54;85426.43;;;-1.24;43.59
36514;BME280;66331;46.796;9.824;2023-02-17T05:27:21;85426.97;;;-0.62;43.05
36514;BME280;66331;46.796;9.824;2023-02-17T05:29:48;85427.07;;;0.62;40.69
36514;BME280;66331;46.796;9.824;2023-02-17T05:32:15;85422.65;;;-0.01;40.72
36514;BME280;66331;46.796;9.824;2023-02-17T05:34:47;85412.16;;;0.79;39.31
36514;BME280;66331;46.796;9.824;2023-02-17T05:37:14;85411.36;;;1.17;38.91
36514;BME280;66331;46.796;9.824;2023-02-17T05:39:42;85417.27;;;-0.14;42.89
36514;BME280;66331;46.796;9.824;2023-02-17T05:42:09;85418.98;;;0.42;41.59
36514;BME280;66331;46.796;9.824;2023-02-17T05:44:36;85421.62;;;-0.05;41.69
36514;BME280;66331;46.796;9.824;2023-02-17T05:47:03;85422.12;;;0.74;40.16
36514;BME280;66331;46.796;9.824;2023-02-17T05:49:30;85422.48;;;0.50;39.66
36514;BME280;66331;46.796;9.824;2023-02-17T05:51:57;85417.46;;;0.40;39.37
36514;BME280;66331;46.796;9.824;2023-02-17T05:54:24;85415.65;;;0.38;39.58
36514;BME280;66331;46.796;9.824;2023-02-17T05:56:51;85417.81;;;0.34;40.06
36514;BME280;66331;46.796;9.824;2023-02-17T05:59:19;85415.38;;;-0.04;41.46
36514;BME280;66331;46.796;9.824;2023-02-17T06:01:45;85416.84;;;0.40;41.68
36514;BME280;66331;46.796;9.824;2023-02-17T06:04:12;85418.94;;;-0.93;44.12
36514;BME280;66331;46.796;9.824;2023-02-17T06:06:39;85418.84;;;-0.01;43.12
36514;BME280;66331;46.796;9.824;2023-02-17T06:09:06;85424.86;;;-0.03;41.88
36514;BME280;66331;46.796;9.824;2023-02-17T06:11:33;85425.55;;;0.85;40.78
36514;BME280;66331;46.796;9.824;2023-02-17T06:14:05;85418.78;;;0.88;39.35
36514;BME280;66331;46.796;9.824;2023-02-17T06:16:33;85420.21;;;0.51;39.36
36514;BME280;66331;46.796;9.824;2023-02-17T06:19:00;85415.07;;;0.76;39.54
36514;BME280;66331;46.796;9.824;2023-02-17T06:21:27;85411.47;;;0.49;39.80
36514;BME280;66331;46.796;9.824;2023-02-17T06:23:54;85411.22;;;0.60;40.03
36514;BME280;66331;46.796;9.824;2023-02-17T06:26:21;85418.25;;;-0.14;42.01
36514;BME280;66331;46.796;9.824;2023-02-17T06:28:48;85417.49;;;-0.53;42.94
36514;BME280;66331;46.796;9.824;2023-02-17T06:31:16;85415.91;;;0.38;40.82
36514;BME280;66331;46.796;9.824;2023-02-17T06:33:44;85417.51;;;0.59;40.28
36514;BME280;66331;46.796;9.824;2023-02-17T06:36:12;85417.34;;;0.62;39.97
36514;BME280;66331;46.796;9.824;2023-02-17T06:38:40;85420.00;;;0.15;40.85
36514;BME280;66331;46.796;9.824;2023-02-17T06:41:07;85419.09;;;-0.16;40.98
36514;BME280;66331;46.796;9.824;2023-02-17T06:43:35;85418.20;;;-0.38;41.00
36514;BME280;66331;46.796;9.824;2023-02-17T06:46:03;85419.71;;;1.02;40.00
36514;BME280;66331;46.796;9.824;2023-02-17T06:48:34;85420.84;;;-0.37;41.10
36514;BME280;66331;46.796;9.824;2023-02-17T06:51:07;85419.38;;;0.78;39.76
36514;BME280;66331;46.796;9.824;2023-02-17T06:53:34;85423.49;;;0.66;39.74
36514;BME280;66331;46.796;9.824;2023-02-17T06:56:14;85424.60;;;0.57;39.97
36514;BME280;66331;46.796;9.824;2023-02-17T06:58:41;85424.61;;;0.18;40.64
36514;BME280;66331;46.796;9.824;2023-02-17T07:01:15;85422.66;;;0.35;40.87
36514;BME280;66331;46.796;9.824;2023-02-17T07:03:43;85422.25;;;-0.23;42.92
36514;BME280;66331;46.796;9.824;2023-02-17T07:06:10;85418.37;;;-0.12;41.42
36514;BME280;66331;46.796;9.824;2023-02-17T07:08:42;85416.04;;;0.65;39.91
36514;BME280;66331;46.796;9.824;2023-02-17T07:11:12;85415.05;;;0.44;40.83
36514;BME280;66331;46.796;9.824;2023-02-17T07:13:41;85423.11;;;-0.17;43.08
36514;BME280;66331;46.796;9.824;2023-02-17T07:16:09;85425.26;;;-1.45;44.41
36514;BME280;66331;46.796;9.824;2023-02-17T07:18:37;85427.19;;;-0.61;43.39
36514;BME280;66331;46.796;9.824;2023-02-17T07:21:05;85428.60;;;0.47;40.94
36514;BME280;66331;46.796;9.824;2023-02-17T07:23:33;85426.77;;;0.50;41.34
36514;BME280;66331;46.796;9.824;2023-02-17T07:26:01;85429.62;;;0.75;40.64
36514;BME280;66331;46.796;9.824;2023-02-17T07:28:29;85431.95;;;-0.20;42.35
36514;BME280;66331;46.796;9.824;2023-02-17T07:30:56;85434.72;;;-0.62;43.92
36514;BME280;66331;46.796;9.824;2023-02-17T07:33:28;85434.54;;;-0.83;43.57
36514;BME280;66331;46.796;9.824;2023-02-17T07:35:59;85439.48;;;-0.92;43.91
36514;BME280;66331;46.796;9.824;2023-02-17T07:38:35;85443.57;;;0.33;41.77
36514;BME280;66331;46.796;9.824;2023-02-17T07:41:04;85444.55;;;0.89;40.00
36514;BME280;66331;46.796;9.824;2023-02-17T07:43:32;85449.28;;;1.08;38.66
36514;BME280;66331;46.796;9.824;2023-02-17T07:46:00;85453.12;;;1.37;39.61
36514;BME280;66331;46.796;9.824;2023-02-17T07:48:29;85455.29;;;0.86;40.08
36514;BME280;66331;46.796;9.824;2023-02-17T07:51:04;85454.50;;;1.46;38.55
36514;BME280;66331;46.796;9.824;2023-02-17T07:53:33;85455.38;;;1.58;37.75
36514;BME280;66331;46.796;9.824;2023-02-17T07:56:02;85458.93;;;0.70;39.10
36514;BME280;66331;46.796;9.824;2023-02-17T07:58:30;85457.21;;;1.59;38.30
36514;BME280;66331;46.796;9.824;2023-02-17T08:00:58;85460.63;;;0.39;40.67
36514;BME280;66331;46.796;9.824;2023-02-17T08:03:41;85458.02;;;1.20;40.07
36514;BME280;66331;46.796;9.824;2023-02-17T08:06:21;85458.07;;;1.45;37.14
36514;BME280;66331;46.796;9.824;2023-02-17T08:08:52;85452.49;;;1.75;36.82
36514;BME280;66331;46.796;9.824;2023-02-17T08:11:20;85451.45;;;2.03;35.20
36514;BME280;66331;46.796;9.824;2023-02-17T08:13:47;85453.19;;;2.46;35.84
36514;BME280;66331;46.796;9.824;2023-02-17T08:16:14;85457.76;;;1.08;38.25
36514;BME280;66331;46.796;9.824;2023-02-17T08:18:41;85454.74;;;1.52;37.85
36514;BME280;66331;46.796;9.824;2023-02-17T08:21:14;85455.17;;;1.89;37.23
36514;BME280;66331;46.796;9.824;2023-02-17T08:23:41;85453.96;;;1.47;37.93
36514;BME280;66331;46.796;9.824;2023-02-17T08:26:54;85457.69;;;2.24;36.28
36514;BME280;66331;46.796;9.824;2023-02-17T08:29:22;85460.61;;;1.07;38.97
36514;BME280;66331;46.796;9.824;2023-02-17T08:31:52;85458.24;;;0.81;39.18
36514;BME280;66331;46.796;9.824;2023-02-17T08:34:29;85454.70;;;2.16;37.31
36514;BME280;66331;46.796;9.824;2023-02-17T08:37:08;85454.71;;;2.62;35.67
36514;BME280;66331;46.796;9.824;2023-02-17T08:39:35;85458.00;;;2.57;35.12
36514;BME280;66331;46.796;9.824;2023-02-17T08:42:03;85457.56;;;2.23;35.31
36514;BME280;66331;46.796;9.824;2023-02-17T08:44:33;85459.60;;;2.86;35.23
36514;BME280;66331;46.796;9.824;2023-02-17T08:47:03;85458.07;;;3.14;34.42
36514;BME280;66331;46.796;9.824;2023-02-17T08:50:52;85457.38;;;3.84;33.70
36514;BME280;66331;46.796;9.824;2023-02-17T08:53:19;85457.06;;;3.11;33.62
36514;BME280;66331;46.796;9.824;2023-02-17T08:55:46;85457.25;;;3.26;33.12
36514;BME280;66331;46.796;9.824;2023-02-17T08:58:13;85461.48;;;3.18;33.14
36514;BME280;66331;46.796;9.824;2023-02-17T09:00:41;85460.27;;;3.60;32.66
36514;BME280;66331;46.796;9.824;2023-02-17T09:03:09;85460.04;;;3.46;32.66
36514;BME280;66331;46.796;9.824;2023-02-17T09:05:37;85462.05;;;3.67;31.82
36514;BME280;66331;46.796;9.824;2023-02-17T09:08:05;85462.28;;;3.80;30.95
36514;BME280;66331;46.796;9.824;2023-02-17T09:10:32;85467.28;;;3.05;31.25
36514;BME280;66331;46.796;9.824;2023-02-17T09:15:00;85464.74;;;3.51;31.18
36514;BME280;66331;46.796;9.824;2023-02-17T09:17:27;85467.38;;;4.13;29.71
36514;BME280;66331;46.796;9.824;2023-02-17T09:20:00;85469.10;;;4.04;30.12
36514;BME280;66331;46.796;9.824;2023-02-17T09:22:27;85468.66;;;4.36;29.79
36514;BME280;66331;46.796;9.824;2023-02-17T09:25:13;85467.05;;;4.20;26.76
36514;BME280;66331;46.796;9.824;2023-02-17T09:27:41;85463.85;;;4.21;27.85
36514;BME280;66331;46.796;9.824;2023-02-17T09:30:09;85466.88;;;3.84;28.41
36514;BME280;66331;46.796;9.824;2023-02-17T09:34:09;85465.29;;;4.56;29.02
36514;BME280;66331;46.796;9.824;2023-02-17T09:36:38;85464.76;;;4.87;30.10
36514;BME280;66331;46.796;9.824;2023-02-17T09:39:20;85462.90;;;5.17;28.40
36514;BME280;66331;46.796;9.824;2023-02-17T09:41:49;85461.25;;;5.38;27.77
36514;BME280;66331;46.796;9.824;2023-02-17T09:44:21;85460.03;;;5.21;26.89
36514;BME280;66331;46.796;9.824;2023-02-17T09:46:58;85463.71;;;5.82;26.50
36514;BME280;66331;46.796;9.824;2023-02-17T09:49:35;85462.77;;;5.12;26.72
36514;BME280;66331;46.796;9.824;2023-02-17T09:52:09;85465.64;;;5.28;26.76
36514;BME280;66331;46.796;9.824;2023-02-17T09:54:45;85462.82;;;5.79;25.54
36514;BME280;66331;46.796;9.824;2023-02-17T09:57:18;85461.73;;;5.47;26.29
36514;BME280;66331;46.796;9.824;2023-02-17T09:59:49;85466.42;;;6.03;25.31
36514;BME280;66331;46.796;9.824;2023-02-17T10:02:36;85465.66;;;5.69;25.84
36514;BME280;66331;46.796;9.824;2023-02-17T10:05:09;85464.58;;;7.16;24.56
36514;BME280;66331;46.796;9.824;2023-02-17T10:07:40;85461.43;;;6.82;24.29
36514;BME280;66331;46.796;9.824;2023-02-17T10:10:15;85461.68;;;6.91;24.91
36514;BME280;66331;46.796;9.824;2023-02-17T10:12:46;85472.57;;;6.66;25.09
36514;BME280;66331;46.796;9.824;2023-02-17T10:15:17;85470.65;;;7.26;23.95
36514;BME280;66331;46.796;9.824;2023-02-17T10:17:52;85469.04;;;6.99;24.50
36514;BME280;66331;46.796;9.824;2023-02-17T10:21:17;85468.27;;;7.28;24.70
36514;BME280;66331;46.796;9.824;2023-02-17T10:23:44;85466.22;;;7.25;24.77
36514;BME280;66331;46.796;9.824;2023-02-17T10:26:20;85465.77;;;7.57;24.41
36514;BME280;66331;46.796;9.824;2023-02-17T10:28:51;85465.75;;;8.80;23.72
36514;BME280;66331;46.796;9.824;2023-02-17T10:31:27;85470.37;;;8.96;23.88
36514;BME280;66331;46.796;9.824;2023-02-17T10:34:02;85476.70;;;8.85;24.38
36514;BME280;66331;46.796;9.824;2023-02-17T10:36:37;85481.78;;;8.15;25.44
36514;BME280;66331;46.796;9.824;2023-02-17T10:39:13;85486.62;;;7.53;26.08
36514;BME280;66331;46.796;9.824;2023-02-17T10:41:41;85490.44;;;7.25;26.47
36514;BME280;66331;46.796;9.824;2023-02-17T10:44:15;85489.20;;;7.59;27.07
36514;BME280;66331;46.796;9.824;2023-02-17T10:46:43;85493.15;;;7.10;27.13
36514;BME280;66331;46.796;9.824;2023-02-17T10:49:18;85493.23;;;7.37;26.83
36514;BME280;66331;46.796;9.824;2023-02-17T10:51:47;85491.04;;;8.02;27.04
36514;BME280;66331;46.796;9.824;2023-02-17T10:54:24;85495.33;;;7.31;26.81
36514;BME280;66331;46.796;9.824;2023-02-17T10:56:56;85498.08;;;6.73;26.66
36514;BME280;66331;46.796;9.824;2023-02-17T10:59:29;85489.07;;;6.99;26.19
36514;BME280;66331;46.796;9.824;2023-02-17T11:02:11;85489.54;;;6.58;25.78
36514;BME280;66331;46.796;9.824;2023-02-17T11:04:41;85491.15;;;7.10;26.19
36514;BME280;66331;46.796;9.824;2023-02-17T11:07:37;85487.28;;;6.84;25.95
36514;BME280;66331;46.796;9.824;2023-02-17T11:11:02;85483.12;;;6.35;26.61
36514;BME280;66331;46.796;9.824;2023-02-17T11:14:16;85479.53;;;6.97;25.27
36514;BME280;66331;46.796;9.824;2023-02-17T11:16:46;85477.69;;;6.93;26.20
36514;BME280;66331;46.796;9.824;2023-02-17T11:19:26;85479.57;;;6.84;26.70
36514;BME280;66331;46.796;9.824;2023-02-17T11:21:56;85471.20;;;7.36;26.59
36514;BME280;66331;46.796;9.824;2023-02-17T11:24:24;85473.91;;;6.93;27.35
36514;BME280;66331;46.796;9.824;2023-02-17T11:26:56;85466.47;;;6.99;27.59
36514;BME280;66331;46.796;9.824;2023-02-17T11:29:24;85465.38;;;7.05;27.69
36514;BME280;66331;46.796;9.824;2023-02-17T11:31:55;85462.54;;;6.10;28.66
36514;BME280;66331;46.796;9.824;2023-02-17T11:34:24;85459.55;;;6.64;28.12
36514;BME280;66331;46.796;9.824;2023-02-17T11:37:01;85455.80;;;6.68;28.21
36514;BME280;66331;46.796;9.824;2023-02-17T11:39:29;85449.94;;;6.84;27.86
36514;BME280;66331;46.796;9.824;2023-02-17T11:41:56;85442.05;;;7.49;27.78
36514;BME280;66331;46.796;9.824;2023-02-17T11:44:25;85441.66;;;7.67;27.58
36514;BME280;66331;46.796;9.824;2023-02-17T11:47:01;85439.59;;;7.63;27.26
36514;BME280;66331;46.796;9.824;2023-02-17T11:49:51;85439.98;;;7.49;27.43
36514;BME280;66331;46.796;9.824;2023-02-17T11:52:35;85436.78;;;8.04;26.88
36514;BME280;66331;46.796;9.824;2023-02-17T11:55:17;85438.83;;;8.40;26.98
36514;BME280;66331;46.796;9.824;2023-02-17T11:57:57;85435.62;;;8.02;26.99
36514;BME280;66331;46.796;9.824;2023-02-17T12:00:34;85432.92;;;8.08;26.64
36514;BME280;66331;46.796;9.824;2023-02-17T12:03:22;85433.28;;;8.16;26.42
36514;BME280;66331;46.796;9.824;2023-02-17T12:06:01;85428.18;;;9.38;26.01
36514;BME280;66331;46.796;9.824;2023-02-17T12:08:42;85429.03;;;9.34;25.82
36514;BME280;66331;46.796;9.824;2023-02-17T12:11:18;85426.92;;;8.67;25.95
36514;BME280;66331;46.796;9.824;2023-02-17T12:13:58;85427.01;;;8.66;25.71
36514;BME280;66331;46.796;9.824;2023-02-17T12:16:36;85432.05;;;8.70;26.13
36514;BME280;66331;46.796;9.824;2023-02-17T12:19:19;85430.26;;;8.94;25.69
36514;BME280;66331;46.796;9.824;2023-02-17T12:21:57;85432.76;;;9.01;25.95
36514;BME280;66331;46.796;9.824;2023-02-17T12:24:37;85432.99;;;8.54;26.49
36514;BME280;66331;46.796;9.824;2023-02-17T12:27:16;85430.33;;;8.15;27.38
36514;BME280;66331;46.796;9.824;2023-02-17T12:30:02;85425.01;;;8.39;27.26
36514;BME280;66331;46.796;9.824;2023-02-17T12:32:43;85422.76;;;7.60;28.10
36514;BME280;66331;46.796;9.824;2023-02-17T12:35:18;85419.48;;;8.28;27.99
36514;BME280;66331;46.796;9.824;2023-02-17T12:37:51;85418.42;;;7.69;28.46
36514;BME280;66331;46.796;9.824;2023-02-17T12:40:30;85417.47;;;8.31;28.60
36514;BME280;66331;46.796;9.824;2023-02-17T12:43:02;85414.99;;;7.62;29.03
36514;BME280;66331;46.796;9.824;2023-02-17T12:45:37;85417.63;;;8.47;28.23
36514;BME280;66331;46.796;9.824;2023-02-17T12:48:13;85413.70;;;7.99;28.00
36514;BME280;66331;46.796;9.824;2023-02-17T12:50:51;85406.48;;;8.14;28.06
36514;BME280;66331;46.796;9.824;2023-02-17T12:53:28;85405.14;;;8.33;27.30
36514;BME280;66331;46.796;9.824;2023-02-17T12:56:03;85406.37;;;8.00;27.54
36514;BME280;66331;46.796;9.824;2023-02-17T12:59:08;85407.06;;;9.01;27.17
36514;BME280;66331;46.796;9.824;2023-02-17T13:01:37;85408.31;;;8.69;26.90
36514;BME280;66331;46.796;9.824;2023-02-17T13:04:15;85410.09;;;8.32;28.23
36514;BME280;66331;46.796;9.824;2023-02-17T13:07:31;85404.16;;;8.70;27.44
36514;BME280;66331;46.796;9.824;2023-02-17T13:10:00;85397.21;;;9.00;27.11
36514;BME280;66331;46.796;9.824;2023-02-17T13:12:57;85396.57;;;8.44;27.16
36514;BME280;66331;46.796;9.824;2023-02-17T13:16:22;85396.57;;;8.19;27.66
36514;BME280;66331;46.796;9.824;2023-02-17T13:18:52;85394.72;;;8.62;27.12
36514;BME280;66331;46.796;9.824;2023-02-17T13:21:31;85395.57;;;8.65;27.37
36514;BME280;66331;46.796;9.824;2023-02-17T13:24:02;85398.65;;;8.76;27.54
36514;BME280;66331;46.796;9.824;2023-02-17T13:27:18;85398.21;;;9.22;27.55
36514;BME280;66331;46.796;9.824;2023-02-17T13:29:58;85397.49;;;8.38;27.99
36514;BME280;66331;46.796;9.824;2023-02-17T13:32:27;85397.78;;;9.24;27.79
36514;BME280;66331;46.796;9.824;2023-02-17T13:35:00;85398.94;;;8.80;28.23
36514;BME280;66331;46.796;9.824;2023-02-17T13:37:38;85399.95;;;8.96;28.14
36514;BME280;66331;46.796;9.824;2023-02-17T13:40:41;85397.35;;;9.27;27.90
36514;BME280;66331;46.796;9.824;2023-02-17T13:43:19;85399.39;;;7.94;29.78
36514;BME280;66331;46.796;9.824;2023-02-17T13:46:36;85403.71;;;8.74;28.62